createdAt,value
2024-04-15T00:01:25.016Z,2.00
2024-04-15T00:04:13.704Z,1.90
2024-04-15T00:07:02.390Z,2.10
2024-04-15T00:09:50.817Z,2.30
2024-04-15T00:12:39.344Z,1.90
2024-04-15T00:15:27.783Z,2.30
2024-04-15T00:18:16.159Z,2.00
2024-04-15T00:21:05.992Z,2.10
2024-04-15T00:23:54.490Z,1.90
2024-04-15T00:26:43.036Z,1.90
2024-04-15T00:29:31.550Z,2.30
2024-04-15T00:32:20.349Z,2.30
2024-04-15T00:35:08.785Z,2.40
2024-04-15T00:37:59.531Z,2.30
2024-04-15T00:40:48.449Z,2.20
2024-04-15T00:43:36.945Z,1.90
2024-04-15T00:46:25.547Z,2.10
2024-04-15T00:49:14.514Z,2.70
2024-04-15T00:52:04.953Z,3.10
2024-04-15T00:54:53.617Z,2.70
2024-04-15T00:57:44.791Z,2.40
2024-04-15T01:05:11.602Z,2.20
2024-04-15T01:08:00.259Z,2.70
2024-04-15T01:10:58.120Z,2.90
2024-04-15T01:13:48.814Z,2.40
2024-04-15T01:16:41.113Z,2.60
2024-04-15T01:19:29.623Z,2.80
2024-04-15T01:22:24.537Z,2.50
2024-04-15T01:25:13.067Z,2.50
2024-04-15T01:28:03.447Z,2.20
2024-04-15T01:30:51.918Z,3.70
2024-04-15T01:33:40.351Z,2.10
2024-04-15T01:36:28.793Z,2.30
2024-04-15T01:39:17.248Z,1.80
2024-04-15T01:42:06.003Z,2.30
2024-04-15T01:44:54.393Z,2.30
2024-04-15T01:47:46.099Z,2.00
2024-04-15T01:50:34.729Z,2.70
2024-04-15T01:53:23.279Z,2.20
2024-04-15T01:56:11.885Z,2.30
2024-04-15T01:59:00.773Z,2.30
2024-04-15T02:01:49.106Z,2.10
2024-04-15T02:04:37.553Z,2.20
2024-04-15T02:07:27.025Z,2.10
2024-04-15T02:10:15.878Z,2.10
2024-04-15T02:13:04.688Z,2.00
2024-04-15T02:15:53.388Z,1.90
2024-04-15T02:18:41.857Z,2.10
2024-04-15T02:21:30.668Z,2.10
2024-04-15T02:24:19.094Z,2.20
2024-04-15T02:27:07.622Z,1.90
2024-04-15T02:29:56.070Z,2.20
2024-04-15T02:32:44.439Z,2.00
2024-04-15T02:35:32.818Z,2.20
2024-04-15T02:38:21.247Z,2.20
2024-04-15T02:41:09.608Z,2.30
2024-04-15T02:43:58.264Z,3.30
2024-04-15T02:46:46.626Z,2.30
2024-04-15T02:49:34.970Z,2.50
2024-04-15T02:52:23.392Z,2.40
2024-04-15T02:55:11.818Z,2.10
2024-04-15T02:58:00.540Z,2.10
2024-04-15T03:00:49.048Z,2.10
2024-04-15T03:03:37.420Z,2.50
2024-04-15T03:06:25.803Z,1.90
2024-04-15T03:09:14.750Z,2.00
2024-04-15T03:12:03.276Z,2.00
2024-04-15T03:14:51.875Z,1.90
2024-04-15T03:17:40.256Z,2.10
2024-04-15T03:20:29.129Z,2.10
2024-04-15T03:23:17.514Z,2.30
2024-04-15T03:26:05.917Z,2.40
2024-04-15T03:28:54.317Z,3.40
2024-04-15T03:31:42.820Z,3.40
2024-04-15T03:34:32.442Z,3.50
2024-04-15T03:37:21.031Z,4.10
2024-04-15T03:40:09.862Z,4.50
2024-04-15T03:42:58.363Z,4.20
2024-04-15T03:45:46.781Z,4.10
2024-04-15T03:48:35.205Z,3.20
2024-04-15T03:51:23.556Z,3.40
2024-04-15T03:54:12.709Z,2.40
2024-04-15T03:57:01.115Z,2.70
2024-04-15T03:59:49.572Z,2.60
2024-04-15T04:02:38.040Z,3.20
2024-04-15T04:05:27.501Z,2.40
2024-04-15T04:08:16.032Z,2.60
2024-04-15T04:11:07.964Z,2.20
2024-04-15T04:13:57.332Z,2.70
2024-04-15T04:16:45.796Z,2.70
2024-04-15T04:19:34.237Z,3.00
2024-04-15T04:22:24.204Z,2.70
2024-04-15T04:25:14.897Z,3.10
2024-04-15T04:28:03.708Z,3.00
2024-04-15T04:30:52.079Z,3.30
2024-04-15T04:33:40.438Z,4.40
2024-04-15T04:36:29.719Z,5.40
2024-04-15T04:39:18.419Z,4.80
2024-04-15T04:42:06.863Z,5.20
2024-04-15T04:44:58.591Z,4.40
2024-04-15T04:47:47.086Z,3.70
2024-04-15T04:50:35.920Z,3.70
2024-04-15T04:53:24.670Z,3.70
2024-04-15T04:56:14.785Z,3.80
2024-04-15T04:59:03.193Z,3.40
2024-04-15T05:01:51.678Z,3.50
2024-04-15T05:04:40.270Z,3.90
2024-04-15T05:07:28.713Z,4.60
2024-04-15T05:10:17.736Z,4.70
2024-04-15T05:13:06.659Z,3.80
2024-04-15T05:16:08.379Z,5.60
2024-04-15T05:18:56.986Z,4.10
2024-04-15T05:21:45.477Z,3.70
2024-04-15T05:24:33.853Z,3.90
2024-04-15T05:27:22.483Z,4.00
2024-04-15T05:30:11.362Z,5.10
2024-04-15T05:32:59.914Z,3.70
2024-04-15T05:35:48.519Z,7.00
2024-04-15T05:38:36.888Z,4.40
2024-04-15T05:41:25.392Z,4.10
2024-04-15T05:44:13.789Z,3.80
2024-04-15T05:47:02.444Z,4.00
2024-04-15T05:49:50.946Z,3.90
2024-04-15T05:52:39.454Z,3.30
2024-04-15T05:55:28.008Z,3.60
2024-04-15T05:58:16.493Z,4.60
2024-04-15T06:01:05.077Z,5.10
2024-04-15T06:03:53.533Z,15.70
2024-04-15T06:06:42.108Z,5.00
2024-04-15T06:09:30.555Z,3.80
2024-04-15T06:12:19.001Z,3.70
2024-04-15T06:15:07.561Z,3.90
2024-04-15T06:17:55.941Z,4.00
2024-04-15T06:20:44.437Z,4.50
2024-04-15T06:23:32.837Z,3.50
2024-04-15T06:26:21.658Z,3.80
2024-04-15T06:29:10.271Z,3.30
2024-04-15T06:31:58.799Z,3.70
2024-04-15T06:34:47.943Z,2.80
2024-04-15T06:37:36.448Z,4.60
2024-04-15T06:40:25.962Z,3.20
2024-04-15T06:43:14.519Z,3.30
2024-04-15T06:46:03.103Z,4.50
2024-04-15T06:48:52.266Z,3.40
2024-04-15T06:51:40.742Z,3.20
2024-04-15T06:54:29.146Z,2.70
2024-04-15T06:57:18.287Z,5.30
2024-04-15T07:00:07.534Z,2.90
2024-04-15T07:02:56.032Z,2.80
2024-04-15T07:05:44.468Z,3.00
2024-04-15T07:08:33.054Z,3.10
2024-04-15T07:11:21.549Z,2.80
2024-04-15T07:14:10.028Z,3.40
2024-04-15T07:16:58.618Z,3.10
2024-04-15T07:19:47.160Z,2.70
2024-04-15T07:22:35.776Z,2.60
2024-04-15T07:25:24.227Z,2.30
2024-04-15T07:28:12.757Z,2.90
2024-04-15T07:31:04.460Z,2.40
2024-04-15T07:33:55.994Z,2.60
2024-04-15T07:39:33.660Z,3.60
2024-04-15T07:42:28.506Z,3.00
2024-04-15T07:45:24.986Z,2.90
2024-04-15T07:48:16.078Z,3.60
2024-04-15T07:51:05.019Z,2.80
2024-04-15T07:53:53.495Z,3.40
2024-04-15T07:56:42.045Z,2.40
2024-04-15T07:59:30.512Z,2.50
2024-04-15T08:02:19.051Z,2.50
2024-04-15T08:05:07.499Z,3.10
2024-04-15T08:07:56.063Z,2.60
2024-04-15T08:10:44.526Z,7.80
2024-04-15T08:13:32.945Z,3.30
2024-04-15T08:16:21.630Z,9.50
2024-04-15T08:19:10.835Z,3.70
2024-04-15T08:21:59.328Z,3.80
2024-04-15T08:24:51.212Z,3.30
2024-04-15T08:27:43.095Z,3.30
2024-04-15T08:30:32.674Z,2.40
2024-04-15T08:33:21.106Z,11.00
2024-04-15T08:36:09.866Z,3.90
2024-04-15T08:38:58.291Z,3.90
2024-04-15T08:42:04.222Z,3.40
2024-04-15T08:44:54.813Z,3.30
2024-04-15T08:47:51.202Z,2.70
2024-04-15T08:50:39.611Z,2.50
2024-04-15T08:53:30.094Z,2.30
2024-04-15T08:56:18.557Z,2.70
2024-04-15T08:59:10.784Z,2.70
2024-04-15T09:01:59.390Z,1.90
2024-04-15T09:04:48.672Z,2.20
2024-04-15T09:07:37.229Z,3.00
2024-04-15T09:10:26.235Z,2.00
2024-04-15T09:13:16.451Z,1.90
2024-04-15T09:16:04.962Z,3.10
2024-04-15T09:18:54.591Z,2.10
2024-04-15T09:21:43.016Z,2.10
2024-04-15T09:24:31.433Z,2.00
2024-04-15T09:27:22.402Z,3.20
2024-04-15T09:30:11.955Z,3.20
2024-04-15T09:33:01.638Z,2.50
2024-04-15T09:35:50.078Z,3.10
2024-04-15T09:38:42.907Z,2.30
2024-04-15T09:41:33.411Z,2.20
2024-04-15T09:44:22.062Z,2.50
2024-04-15T09:47:11.727Z,2.30
2024-04-15T09:50:00.148Z,2.40
2024-04-15T09:52:56.827Z,1.90
2024-04-15T09:55:52.320Z,2.30
2024-04-15T09:58:44.635Z,2.40
2024-04-15T10:01:33.518Z,2.40
2024-04-15T10:04:27.339Z,1.70
2024-04-15T10:07:17.452Z,2.20
2024-04-15T10:10:06.538Z,2.80
2024-04-15T10:13:06.135Z,2.70
2024-04-15T10:16:01.918Z,2.30
2024-04-15T10:18:55.191Z,2.30
2024-04-15T10:21:43.748Z,2.70
2024-04-15T10:24:32.622Z,2.70
2024-04-15T10:27:21.153Z,2.00
2024-04-15T10:30:20.220Z,2.20
2024-04-15T10:33:12.025Z,2.30
2024-04-15T10:36:00.480Z,2.30
2024-04-15T10:38:49.980Z,2.90
2024-04-15T10:41:40.716Z,1.90
2024-04-15T10:47:17.944Z,2.40
2024-04-15T10:50:09.691Z,2.40
2024-04-15T10:52:58.179Z,2.40
2024-04-15T10:55:46.673Z,1.50
2024-04-15T10:58:37.169Z,2.80
2024-04-15T11:01:25.801Z,3.20
2024-04-15T11:04:14.847Z,2.40
2024-04-15T11:07:04.682Z,2.90
2024-04-15T11:09:53.395Z,1.80
2024-04-15T11:12:42.730Z,1.50
2024-04-15T11:15:32.267Z,1.70
2024-04-15T11:18:21.774Z,2.30
2024-04-15T11:21:10.409Z,1.80
2024-04-15T11:23:58.907Z,1.70
2024-04-15T11:26:49.233Z,1.50
2024-04-15T11:29:51.264Z,1.60
2024-04-15T11:32:45.210Z,1.70
2024-04-15T11:35:33.725Z,2.10
2024-04-15T11:38:23.406Z,2.00
2024-04-15T11:41:12.050Z,2.30
2024-04-15T11:44:01.600Z,2.20
2024-04-15T11:46:50.045Z,1.90
2024-04-15T11:49:39.863Z,2.00
2024-04-15T11:52:28.761Z,2.20
2024-04-15T11:55:22.011Z,2.10
2024-04-15T11:58:10.790Z,2.10
2024-04-15T12:00:59.278Z,2.10
2024-04-15T12:03:49.081Z,2.10
2024-04-15T12:06:37.727Z,1.70
2024-04-15T12:09:27.111Z,2.10
2024-04-15T12:12:16.490Z,2.20
2024-04-15T12:15:08.680Z,1.60
2024-04-15T12:17:57.874Z,2.30
2024-04-15T12:20:46.348Z,2.20
2024-04-15T12:23:34.804Z,1.70
2024-04-15T12:26:26.045Z,2.20
2024-04-15T12:29:17.519Z,1.90
2024-04-15T12:32:06.371Z,2.00
2024-04-15T12:34:54.783Z,1.70
2024-04-15T12:37:43.928Z,1.80
2024-04-15T12:40:32.360Z,1.80
2024-04-15T12:43:20.803Z,1.80
2024-04-15T12:46:09.547Z,2.30
2024-04-15T12:48:58.025Z,2.10
2024-04-15T12:51:46.442Z,2.30
2024-04-15T12:54:34.845Z,2.30
2024-04-15T12:57:24.908Z,1.90
2024-04-15T13:00:13.488Z,2.30
2024-04-15T13:03:02.710Z,2.30
2024-04-15T13:05:51.255Z,2.40
2024-04-15T13:08:39.711Z,2.70
2024-04-15T13:11:28.189Z,2.40
2024-04-15T13:14:16.592Z,2.50
2024-04-15T13:17:05.732Z,2.00
2024-04-15T13:19:54.175Z,2.10
2024-04-15T13:22:42.641Z,2.30
2024-04-15T13:25:31.864Z,2.30
2024-04-15T13:28:20.379Z,2.30
2024-04-15T13:31:08.813Z,2.70
2024-04-15T13:33:57.691Z,2.50
2024-04-15T13:36:46.421Z,3.10
2024-04-15T13:39:35.234Z,2.80
2024-04-15T13:42:24.220Z,3.20
2024-04-15T13:45:12.680Z,2.90
2024-04-15T13:48:01.099Z,2.80
2024-04-15T13:50:50.088Z,3.20
2024-04-15T13:53:38.444Z,3.90
2024-04-15T13:56:27.297Z,3.50
2024-04-15T13:59:15.797Z,3.30
2024-04-15T14:02:04.533Z,3.50
2024-04-15T14:04:53.178Z,3.30
2024-04-15T14:07:44.779Z,3.30
2024-04-15T14:10:35.299Z,3.80
2024-04-15T14:13:24.056Z,3.50
2024-04-15T14:16:12.696Z,3.70
2024-04-15T14:19:03.026Z,4.10
2024-04-15T14:21:51.399Z,4.00
2024-04-15T14:24:42.898Z,3.50
2024-04-15T14:27:32.080Z,3.90
2024-04-15T14:30:21.257Z,3.30
2024-04-15T14:33:09.848Z,3.80
2024-04-15T14:35:58.453Z,3.80
2024-04-15T14:38:46.878Z,3.40
2024-04-15T14:41:35.530Z,3.50
2024-04-15T14:44:23.909Z,3.40
2024-04-15T14:47:12.346Z,3.60
2024-04-15T14:50:01.022Z,3.50
2024-04-15T14:52:49.522Z,3.60
2024-04-15T14:55:39.959Z,3.40
2024-04-15T14:58:29.050Z,4.00
2024-04-15T15:01:17.843Z,4.40
2024-04-15T15:04:06.379Z,4.30
2024-04-15T15:06:55.115Z,3.60
2024-04-15T15:09:43.502Z,3.40
2024-04-15T15:12:31.872Z,4.00
2024-04-15T15:15:20.376Z,3.10
2024-04-15T15:18:08.971Z,3.50
2024-04-15T15:21:04.401Z,3.60
2024-04-15T15:23:56.575Z,3.10
2024-04-15T15:26:45.743Z,4.00
2024-04-15T15:29:34.188Z,3.70
2024-04-15T15:32:23.105Z,3.50
2024-04-15T15:35:11.633Z,3.60
2024-04-15T15:38:00.142Z,3.30
2024-04-15T15:40:48.518Z,3.10
2024-04-15T15:43:37.068Z,3.20
2024-04-15T15:46:25.509Z,3.40
2024-04-15T15:49:14.158Z,3.70
2024-04-15T15:52:04.574Z,3.10
2024-04-15T15:54:53.035Z,3.40
2024-04-15T15:57:41.919Z,2.90
2024-04-15T16:00:30.459Z,3.60
2024-04-15T16:03:21.680Z,3.00
2024-04-15T16:06:10.538Z,2.90
2024-04-15T16:08:58.976Z,3.60
2024-04-15T16:11:47.673Z,3.30
2024-04-15T16:14:36.092Z,3.20
2024-04-15T16:17:25.029Z,3.40
2024-04-15T16:20:13.570Z,3.10
2024-04-15T16:23:01.889Z,3.00
2024-04-15T16:25:50.473Z,3.10
2024-04-15T16:28:45.964Z,3.00
2024-04-15T16:31:35.384Z,3.20
2024-04-15T16:34:23.817Z,3.40
2024-04-15T16:37:12.248Z,3.00
2024-04-15T16:40:00.856Z,3.40
2024-04-15T16:42:49.320Z,3.20
2024-04-15T16:45:37.891Z,3.40
2024-04-15T16:48:26.582Z,3.80
2024-04-15T16:51:14.942Z,3.30
2024-04-15T16:54:03.334Z,3.50
2024-04-15T16:56:51.739Z,3.60
2024-04-15T16:59:40.261Z,3.90
2024-04-15T17:02:29.216Z,4.10
2024-04-15T17:05:18.337Z,3.40
2024-04-15T17:08:08.205Z,3.40
2024-04-15T17:10:56.893Z,4.50
2024-04-15T17:13:45.270Z,3.80
2024-04-15T17:16:33.919Z,4.20
2024-04-15T17:19:22.759Z,3.50
2024-04-15T17:22:11.548Z,4.30
2024-04-15T17:25:00.571Z,4.30
2024-04-15T17:27:48.999Z,4.60
2024-04-15T17:30:38.455Z,5.00
2024-04-15T17:33:27.059Z,4.70
2024-04-15T17:36:15.719Z,5.20
2024-04-15T17:39:04.299Z,5.60
2024-04-15T17:41:52.699Z,5.30
2024-04-15T17:44:41.110Z,4.90
2024-04-15T17:47:29.675Z,4.80
2024-04-15T17:50:18.272Z,5.30
2024-04-15T17:53:07.578Z,5.10
2024-04-15T17:55:56.198Z,5.10
2024-04-15T17:58:44.801Z,5.70
2024-04-15T18:01:33.373Z,4.90
2024-04-15T18:04:22.591Z,5.30
2024-04-15T18:07:11.876Z,5.70
2024-04-15T18:10:00.615Z,5.60
2024-04-15T18:12:49.164Z,5.20
2024-04-15T18:15:37.614Z,5.00
2024-04-15T18:18:28.280Z,5.50
2024-04-15T18:21:17.966Z,5.70
2024-04-15T18:24:07.127Z,5.20
2024-04-15T18:26:56.026Z,5.60
2024-04-15T18:29:44.475Z,6.80
2024-04-15T18:32:33.040Z,5.90
2024-04-15T18:35:21.535Z,9.50
2024-04-15T18:38:10.328Z,10.70
2024-04-15T18:40:58.849Z,19.10
2024-04-15T18:43:48.300Z,12.40
2024-04-15T18:46:36.896Z,12.20
2024-04-15T18:49:25.482Z,10.50
2024-04-15T18:52:14.046Z,9.60
2024-04-15T18:55:02.550Z,11.50
2024-04-15T18:57:51.036Z,11.10
2024-04-15T19:00:39.567Z,10.50
2024-04-15T19:03:27.979Z,8.20
2024-04-15T19:06:16.707Z,8.20
2024-04-15T19:09:05.095Z,6.50
2024-04-15T19:11:53.725Z,7.10
2024-04-15T19:14:52.818Z,8.80
2024-04-15T19:17:51.020Z,14.20
2024-04-15T19:20:40.336Z,11.80
2024-04-15T19:23:28.755Z,6.60
2024-04-15T19:26:17.148Z,5.80
2024-04-15T19:29:05.561Z,5.40
2024-04-15T19:31:54.042Z,5.80
2024-04-15T19:34:42.454Z,5.50
2024-04-15T19:37:31.078Z,6.50
2024-04-15T19:40:19.718Z,6.80
2024-04-15T19:43:08.782Z,7.40
2024-04-15T19:45:57.650Z,7.50
2024-04-15T19:48:46.097Z,7.80
2024-04-15T19:51:36.503Z,7.40
2024-04-15T19:54:25.780Z,8.20
2024-04-15T19:57:14.160Z,6.40
2024-04-15T20:00:03.301Z,7.30
2024-04-15T20:02:53.651Z,7.00
2024-04-15T20:05:42.826Z,7.30
2024-04-15T20:08:32.471Z,8.40
2024-04-15T20:11:20.970Z,9.10
2024-04-15T20:14:10.030Z,8.80
2024-04-15T20:17:03.288Z,7.90
2024-04-15T20:19:58.081Z,7.40
2024-04-15T20:22:46.480Z,6.70
2024-04-15T20:25:35.310Z,7.10
2024-04-15T20:28:23.919Z,8.20
2024-04-15T20:31:12.799Z,8.00
2024-04-15T20:34:01.256Z,8.00
2024-04-15T20:36:49.938Z,7.80
2024-04-15T20:39:38.327Z,8.30
2024-04-15T20:42:26.749Z,7.40
2024-04-15T20:45:15.438Z,6.90
2024-04-15T20:48:04.248Z,7.50
2024-04-15T20:50:52.974Z,7.50
2024-04-15T20:53:41.613Z,7.60
2024-04-15T20:56:30.047Z,7.50
2024-04-15T20:59:18.496Z,7.80
2024-04-15T21:02:07.008Z,8.00
2024-04-15T21:04:55.468Z,7.80
2024-04-15T21:07:43.958Z,7.90
2024-04-15T21:10:32.413Z,8.50
2024-04-15T21:13:21.093Z,6.90
2024-04-15T21:16:09.723Z,7.90
2024-04-15T21:18:58.145Z,7.10
2024-04-15T21:21:46.887Z,7.40
2024-04-15T21:24:35.328Z,8.50
2024-04-15T21:27:23.680Z,8.00
2024-04-15T21:30:12.341Z,7.70
2024-04-15T21:33:01.003Z,8.40
2024-04-15T21:35:49.497Z,8.20
2024-04-15T21:38:37.936Z,8.50
2024-04-15T21:41:26.552Z,8.50
2024-04-15T21:44:15.209Z,9.60
2024-04-15T21:47:11.365Z,8.30
2024-04-15T21:49:59.979Z,8.40
2024-04-15T21:52:48.458Z,9.70
2024-04-15T21:55:36.936Z,9.30
2024-04-15T21:58:27.722Z,8.70
2024-04-15T22:01:16.975Z,9.30
2024-04-15T22:04:06.066Z,8.30
2024-04-15T22:06:54.610Z,9.00
2024-04-15T22:09:43.032Z,8.20
2024-04-15T22:12:31.942Z,8.30
2024-04-15T22:15:20.698Z,8.40
2024-04-15T22:18:09.341Z,9.10
2024-04-15T22:20:57.796Z,8.50
2024-04-15T22:23:46.130Z,9.60
2024-04-15T22:26:35.078Z,9.30
2024-04-15T22:29:23.606Z,8.50
2024-04-15T22:32:15.112Z,8.50
2024-04-15T22:35:04.994Z,8.60
2024-04-15T22:37:53.482Z,9.40
2024-04-15T22:40:42.933Z,8.00
2024-04-15T22:43:31.467Z,8.40
2024-04-15T22:46:19.944Z,8.10
2024-04-15T22:49:08.375Z,9.30
2024-04-15T22:51:56.824Z,9.40
2024-04-15T22:54:45.374Z,10.00
2024-04-15T22:57:34.124Z,9.40
2024-04-15T23:00:22.945Z,9.50
2024-04-15T23:03:11.458Z,10.00
2024-04-15T23:05:59.965Z,11.20
2024-04-15T23:08:48.329Z,10.50
2024-04-15T23:11:36.697Z,11.20
2024-04-15T23:14:25.127Z,11.20
2024-04-15T23:17:13.840Z,11.30
2024-04-15T23:20:02.297Z,12.40
2024-04-15T23:22:52.381Z,13.10
2024-04-15T23:25:40.819Z,13.20
2024-04-15T23:28:32.126Z,14.80
2024-04-15T23:31:20.650Z,14.30
2024-04-15T23:34:09.144Z,13.60
2024-04-15T23:36:57.516Z,13.30
2024-04-15T23:39:46.144Z,14.20
2024-04-15T23:42:34.453Z,15.00
2024-04-15T23:45:54.126Z,15.20
2024-04-15T23:49:01.003Z,12.90
2024-04-15T23:52:07.973Z,14.20
2024-04-15T23:55:15.146Z,14.90
2024-04-15T23:58:19.462Z,14.10
